createdAt,value
2018-08-18T00:00:20.327Z,85.70
2018-08-18T00:02:49.319Z,86.90
2018-08-18T00:05:18.550Z,86.49
2018-08-18T00:07:47.487Z,86.97
2018-08-18T00:10:19.727Z,86.85
2018-08-18T00:12:48.589Z,86.91
2018-08-18T00:15:17.601Z,87.57
2018-08-18T00:17:46.544Z,87.67
2018-08-18T00:20:17.401Z,87.34
2018-08-18T00:22:46.380Z,86.23
2018-08-18T00:25:15.361Z,86.74
2018-08-18T00:27:44.249Z,87.26
2018-08-18T00:30:18.457Z,87.58
2018-08-18T00:32:47.357Z,87.75
2018-08-18T00:35:16.345Z,86.89
2018-08-18T00:37:45.194Z,86.62
2018-08-18T00:40:14.149Z,86.64
2018-08-18T00:42:44.157Z,86.37
2018-08-18T00:45:13.640Z,86.48
2018-08-18T00:47:42.515Z,86.53
2018-08-18T00:50:12.795Z,86.59
2018-08-18T00:52:41.927Z,86.60
2018-08-18T00:55:10.804Z,85.59
2018-08-18T00:57:39.707Z,86.41
2018-08-18T01:00:08.608Z,86.52
2018-08-18T01:02:37.469Z,87.10
2018-08-18T01:05:06.354Z,87.56
2018-08-18T01:07:35.275Z,87.24
2018-08-18T01:10:04.275Z,86.43
2018-08-18T01:12:34.008Z,87.23
2018-08-18T01:15:03.655Z,85.92
2018-08-18T01:17:32.879Z,86.77
2018-08-18T01:20:03.271Z,88.18
2018-08-18T01:22:32.193Z,87.35
2018-08-18T01:25:01.097Z,87.68
2018-08-18T01:27:30.355Z,86.46
2018-08-18T01:30:04.036Z,86.08
2018-08-18T01:32:34.047Z,86.97
2018-08-18T01:35:03.219Z,87.59
2018-08-18T01:37:32.506Z,87.39
2018-08-18T01:40:01.739Z,87.09
2018-08-18T01:42:32.377Z,86.75
2018-08-18T01:45:01.400Z,86.87
2018-08-18T01:47:30.473Z,86.77
2018-08-18T01:50:03.726Z,86.31
2018-08-18T01:52:33.274Z,86.39
2018-08-18T01:55:02.732Z,86.19
2018-08-18T01:57:32.903Z,86.68
2018-08-18T02:00:05.926Z,86.56
2018-08-18T02:02:34.841Z,86.38
2018-08-18T02:05:13.451Z,87.46
2018-08-18T02:07:42.331Z,86.30
2018-08-18T02:10:11.237Z,87.11
2018-08-18T02:12:41.170Z,87.70
2018-08-18T02:15:10.039Z,87.87
2018-08-18T02:17:38.952Z,87.44
2018-08-18T02:20:09.345Z,87.52
2018-08-18T02:22:38.214Z,87.77
2018-08-18T02:25:07.233Z,87.38
2018-08-18T02:27:36.947Z,87.19
2018-08-18T02:30:16.088Z,86.51
2018-08-18T02:32:44.970Z,86.90
2018-08-18T02:35:13.865Z,88.00
2018-08-18T02:37:42.728Z,87.42
2018-08-18T02:40:13.955Z,87.30
2018-08-18T02:42:42.868Z,87.26
2018-08-18T02:45:12.267Z,89.24
2018-08-18T02:47:41.305Z,87.36
2018-08-18T02:50:11.282Z,88.38
2018-08-18T02:52:40.199Z,88.54
2018-08-18T02:55:10.640Z,88.83
2018-08-18T02:57:41.570Z,87.31
2018-08-18T03:00:26.974Z,87.96
2018-08-18T03:02:55.922Z,88.03
2018-08-18T03:05:24.798Z,87.59
2018-08-18T03:07:53.750Z,88.41
2018-08-18T03:10:22.674Z,88.45
2018-08-18T03:12:53.061Z,87.47
2018-08-18T03:16:00.516Z,87.80
2018-08-18T03:18:51.104Z,88.36
2018-08-18T03:21:25.962Z,88.04
2018-08-18T03:24:06.343Z,88.27
2018-08-18T03:26:40.314Z,88.78
2018-08-18T03:29:10.731Z,88.35
2018-08-18T03:31:40.307Z,88.53
2018-08-18T03:34:09.470Z,88.67
2018-08-18T03:36:40.280Z,89.46
2018-08-18T03:39:12.190Z,88.40
2018-08-18T03:41:41.092Z,88.46
2018-08-18T03:44:10.017Z,88.65
2018-08-18T03:46:38.923Z,87.74
2018-08-18T03:49:07.831Z,88.51
2018-08-18T03:51:42.065Z,88.16
2018-08-18T03:54:11.179Z,89.80
2018-08-18T03:56:40.367Z,88.42
2018-08-18T03:59:09.269Z,88.77
2018-08-18T04:01:43.649Z,88.51
2018-08-18T04:04:13.447Z,88.62
2018-08-18T04:06:43.381Z,88.41
2018-08-18T04:09:18.886Z,88.79
2018-08-18T04:11:47.825Z,87.94
2018-08-18T04:14:21.525Z,88.73
2018-08-18T04:16:51.471Z,87.98
2018-08-18T04:19:21.395Z,88.65
2018-08-18T04:21:52.115Z,88.05
2018-08-18T04:24:20.996Z,89.61
2018-08-18T04:26:51.202Z,89.17
2018-08-18T04:29:21.523Z,88.55
2018-08-18T04:31:50.475Z,88.90
2018-08-18T04:34:19.353Z,89.59
2018-08-18T04:36:48.257Z,88.75
2018-08-18T04:39:17.197Z,89.31
2018-08-18T04:41:46.068Z,88.09
2018-08-18T04:44:14.942Z,88.09
2018-08-18T04:46:43.847Z,88.67
2018-08-18T04:49:12.772Z,88.80
2018-08-18T04:51:41.665Z,89.39
2018-08-18T04:54:10.576Z,88.42
2018-08-18T04:56:39.477Z,89.15
2018-08-18T04:59:08.386Z,89.96
2018-08-18T05:01:37.297Z,89.50
2018-08-18T05:04:10.403Z,88.29
2018-08-18T05:06:40.541Z,88.80
2018-08-18T05:09:10.666Z,88.62
2018-08-18T05:11:39.765Z,89.41
2018-08-18T05:14:08.544Z,88.55
2018-08-18T05:16:37.465Z,88.98
2018-08-18T05:19:06.473Z,88.90
2018-08-18T05:21:35.370Z,88.16
2018-08-18T05:24:20.278Z,88.32
2018-08-18T05:26:49.579Z,88.91
2018-08-18T05:29:18.471Z,88.42
2018-08-18T05:31:47.400Z,88.86
2018-08-18T05:34:16.350Z,88.44
2018-08-18T05:36:45.550Z,88.60
2018-08-18T05:39:14.484Z,88.23
2018-08-18T05:41:43.432Z,89.02
2018-08-18T05:44:12.286Z,88.32
2018-08-18T05:46:41.173Z,89.76
2018-08-18T05:49:14.084Z,87.91
2018-08-18T05:51:45.147Z,88.03
2018-08-18T05:54:16.479Z,87.71
2018-08-18T05:56:46.340Z,87.97
2018-08-18T05:59:15.197Z,87.95
2018-08-18T06:01:44.240Z,88.07
2018-08-18T06:04:14.287Z,87.92
2018-08-18T06:06:43.960Z,88.56
2018-08-18T06:09:14.102Z,89.03
2018-08-18T06:11:43.146Z,88.04
2018-08-18T06:14:12.773Z,88.19
2018-08-18T06:16:42.229Z,87.67
2018-08-18T06:19:11.170Z,87.76
2018-08-18T06:21:40.245Z,87.72
2018-08-18T06:24:10.390Z,87.50
2018-08-18T06:26:40.602Z,88.48
2018-08-18T06:29:09.870Z,87.58
2018-08-18T06:31:55.297Z,88.08
2018-08-18T06:34:24.285Z,87.87
2018-08-18T06:36:53.152Z,87.13
2018-08-18T06:39:22.139Z,86.77
2018-08-18T06:41:51.076Z,87.73
2018-08-18T06:44:24.373Z,88.07
2018-08-18T06:46:53.266Z,86.75
2018-08-18T06:49:22.210Z,87.01
2018-08-18T06:51:51.125Z,86.94
2018-08-18T06:54:20.032Z,86.14
2018-08-18T06:56:48.936Z,85.97
2018-08-18T06:59:17.967Z,84.98
2018-08-18T07:01:46.957Z,83.34
2018-08-18T07:04:20.052Z,84.77
2018-08-18T07:06:48.948Z,83.65
2018-08-18T07:09:17.825Z,83.99
2018-08-18T07:11:46.745Z,82.27
2018-08-18T07:14:15.667Z,82.83
2018-08-18T07:16:44.540Z,81.56
2018-08-18T07:19:13.513Z,80.91
2018-08-18T07:21:42.360Z,81.28
2018-08-18T07:24:11.293Z,78.19
2018-08-18T07:26:40.200Z,78.38
2018-08-18T07:29:09.375Z,79.17
2018-08-18T07:31:37.977Z,77.77
2018-08-18T07:34:06.964Z,78.30
2018-08-18T07:36:35.951Z,78.12
2018-08-18T07:39:06.308Z,77.33
2018-08-18T07:41:35.181Z,76.80
2018-08-18T07:44:04.096Z,76.99
2018-08-18T07:46:33.193Z,76.81
2018-08-18T07:49:02.473Z,75.40
2018-08-18T07:51:31.305Z,75.07
2018-08-18T07:54:00.163Z,74.71
2018-08-18T07:56:29.053Z,73.88
2018-08-18T07:58:57.937Z,73.33
2018-08-18T08:01:26.834Z,72.28
2018-08-18T08:03:55.733Z,71.23
2018-08-18T08:06:24.625Z,71.33
2018-08-18T08:08:53.530Z,71.88
2018-08-18T08:11:23.311Z,70.54
2018-08-18T08:13:52.247Z,70.22
2018-08-18T08:16:21.152Z,68.22
2018-08-18T08:18:50.073Z,68.90
2018-08-18T08:21:18.957Z,68.73
2018-08-18T08:23:47.899Z,67.99
2018-08-18T08:26:16.804Z,66.93
2018-08-18T08:28:45.707Z,66.34
2018-08-18T08:31:14.603Z,66.33
2018-08-18T08:33:43.497Z,65.27
2018-08-18T08:36:16.032Z,65.36
2018-08-18T08:38:56.150Z,65.89
2018-08-18T08:41:27.367Z,64.92
2018-08-18T08:43:56.261Z,63.97
2018-08-18T08:46:25.181Z,63.72
2018-08-18T08:49:00.231Z,64.38
2018-08-18T08:51:29.179Z,64.33
2018-08-18T08:53:59.263Z,62.08
2018-08-18T08:56:33.541Z,61.43
2018-08-18T08:59:02.499Z,61.74
2018-08-18T09:01:31.402Z,61.54
2018-08-18T09:04:00.306Z,60.91
2018-08-18T09:06:29.229Z,62.28
2018-08-18T09:08:59.867Z,59.76
2018-08-18T09:11:29.733Z,60.91
2018-08-18T09:14:02.127Z,59.54
2018-08-18T09:16:32.057Z,59.43
2018-08-18T09:19:01.095Z,59.10
2018-08-18T09:21:37.873Z,60.25
2018-08-18T09:24:07.287Z,57.83
2018-08-18T09:26:41.591Z,57.40
2018-08-18T09:29:10.814Z,56.46
2018-08-18T09:31:39.918Z,57.12
2018-08-18T09:34:08.864Z,57.75
2018-08-18T09:36:37.788Z,58.02
2018-08-18T09:39:10.174Z,58.15
2018-08-18T09:41:39.378Z,56.37
2018-08-18T09:44:14.828Z,57.63
2018-08-18T09:46:44.424Z,56.80
2018-08-18T09:49:13.342Z,55.88
2018-08-18T09:51:42.274Z,56.65
2018-08-18T09:54:11.151Z,56.50
2018-08-18T09:56:40.088Z,57.41
2018-08-18T09:59:09.022Z,57.02
2018-08-18T10:01:37.886Z,56.91
2018-08-18T10:04:07.069Z,57.03
2018-08-18T10:06:35.991Z,56.30
2018-08-18T10:09:07.190Z,55.55
2018-08-18T10:11:36.345Z,55.43
2018-08-18T10:14:05.684Z,55.26
2018-08-18T10:16:34.601Z,56.15
2018-08-18T10:19:03.471Z,56.62
2018-08-18T10:21:32.367Z,57.35
2018-08-18T10:24:01.325Z,57.22
2018-08-18T10:26:30.204Z,56.30
2018-08-18T10:29:12.383Z,56.31
2018-08-18T10:31:56.839Z,56.06
2018-08-18T10:34:33.737Z,56.52
2018-08-18T10:37:07.336Z,57.35
2018-08-18T10:39:37.299Z,56.35
2018-08-18T10:42:15.750Z,56.38
2018-08-18T10:45:02.844Z,56.57
2018-08-18T10:47:31.929Z,56.18
2018-08-18T10:50:11.984Z,56.12
2018-08-18T10:53:01.204Z,56.52
2018-08-18T10:55:31.477Z,54.98
2018-08-18T10:58:05.159Z,55.34
2018-08-18T11:00:34.525Z,54.82
2018-08-18T11:03:04.805Z,54.97
2018-08-18T11:05:33.829Z,54.44
2018-08-18T11:08:09.490Z,54.29
2018-08-18T11:10:40.565Z,54.80
2018-08-18T11:13:09.762Z,53.61
2018-08-18T11:15:39.016Z,53.97
2018-08-18T11:18:08.004Z,52.61
2018-08-18T11:20:36.885Z,53.10
2018-08-18T11:23:07.876Z,53.34
2018-08-18T11:25:42.766Z,54.30
2018-08-18T11:28:12.452Z,53.76
2018-08-18T11:30:41.407Z,52.80
2018-08-18T11:33:10.354Z,52.65
2018-08-18T11:35:39.282Z,51.15
2018-08-18T11:38:11.763Z,51.70
2018-08-18T11:40:40.662Z,52.57
2018-08-18T11:43:11.321Z,52.60
2018-08-18T11:45:41.058Z,51.71
2018-08-18T11:48:15.915Z,51.53
2018-08-18T11:50:45.269Z,52.23
2018-08-18T11:53:14.302Z,51.88
2018-08-18T11:55:43.313Z,51.81
2018-08-18T11:58:14.300Z,49.84
2018-08-18T12:00:48.376Z,50.82
2018-08-18T12:03:19.358Z,49.23
2018-08-18T12:05:50.554Z,48.18
2018-08-18T12:08:20.358Z,48.77
2018-08-18T12:10:50.385Z,48.02
2018-08-18T12:13:21.639Z,47.79
2018-08-18T12:16:01.850Z,47.69
2018-08-18T12:18:31.873Z,48.49
2018-08-18T12:21:01.953Z,48.22
2018-08-18T12:23:31.403Z,47.75
2018-08-18T12:26:05.493Z,48.49
2018-08-18T12:28:39.780Z,46.68
2018-08-18T12:31:10.439Z,46.86
2018-08-18T12:33:39.356Z,45.22
2018-08-18T12:36:08.297Z,46.42
2018-08-18T12:38:37.525Z,46.34
2018-08-18T12:41:06.535Z,46.07
2018-08-18T12:43:39.018Z,47.33
2018-08-18T12:46:10.441Z,46.97
2018-08-18T12:48:41.551Z,46.23
2018-08-18T12:51:11.599Z,46.55
2018-08-18T12:53:45.815Z,46.66
2018-08-18T12:56:17.452Z,46.16
2018-08-18T12:58:46.390Z,46.09
2018-08-18T13:01:42.032Z,46.26
2018-08-18T13:04:16.263Z,45.25
2018-08-18T13:06:46.501Z,44.78
2018-08-18T13:09:18.518Z,45.24
2018-08-18T13:11:48.851Z,44.50
2018-08-18T13:14:20.080Z,44.77
2018-08-18T13:16:49.136Z,45.86
2018-08-18T13:19:19.831Z,45.27
2018-08-18T13:21:48.818Z,43.99
2018-08-18T13:24:18.083Z,44.21
2018-08-18T13:26:47.023Z,44.80
2018-08-18T13:29:15.942Z,45.47
2018-08-18T13:31:45.290Z,44.68
2018-08-18T13:34:15.416Z,43.52
2018-08-18T13:36:45.366Z,43.83
2018-08-18T13:39:15.494Z,43.46
2018-08-18T13:41:45.400Z,43.93
2018-08-18T13:44:23.325Z,43.88
2018-08-18T13:46:52.349Z,43.17
2018-08-18T13:49:23.202Z,42.88
2018-08-18T13:51:52.192Z,42.47
2018-08-18T13:54:21.090Z,43.55
2018-08-18T13:56:49.973Z,43.80
2018-08-18T13:59:42.233Z,43.61
2018-08-18T14:02:11.374Z,44.01
2018-08-18T14:04:40.894Z,44.91
2018-08-18T14:07:10.222Z,45.16
2018-08-18T14:09:41.358Z,45.40
2018-08-18T14:12:13.861Z,45.35
2018-08-18T14:14:42.778Z,44.29
2018-08-18T14:17:11.820Z,44.67
2018-08-18T14:19:40.731Z,44.59
2018-08-18T14:22:10.393Z,44.56
2018-08-18T14:24:40.409Z,45.05
2018-08-18T14:27:13.439Z,44.77
2018-08-18T14:29:42.372Z,45.44
2018-08-18T14:32:16.745Z,45.65
2018-08-18T14:34:53.853Z,46.06
2018-08-18T14:37:22.740Z,45.58
2018-08-18T14:39:51.627Z,45.88
2018-08-18T14:42:20.525Z,45.48
2018-08-18T14:44:49.500Z,45.31
2018-08-18T14:47:18.344Z,45.30
2018-08-18T14:49:47.222Z,44.36
2018-08-18T14:52:16.106Z,44.21
2018-08-18T14:54:44.975Z,44.04
2018-08-18T14:57:13.897Z,43.79
2018-08-18T14:59:42.797Z,43.58
2018-08-18T15:02:11.723Z,43.04
2018-08-18T15:04:40.668Z,44.02
2018-08-18T15:07:09.575Z,43.77
2018-08-18T15:09:42.769Z,43.40
2018-08-18T15:12:11.688Z,43.43
2018-08-18T15:14:40.627Z,43.45
2018-08-18T15:17:09.536Z,42.94
2018-08-18T15:19:38.690Z,42.05
2018-08-18T15:22:08.941Z,42.98
2018-08-18T15:24:38.047Z,42.76
2018-08-18T15:27:07.004Z,42.78
2018-08-18T15:29:35.975Z,42.96
2018-08-18T15:32:05.003Z,43.26
2018-08-18T15:34:33.931Z,42.55
2018-08-18T15:37:03.026Z,43.11
2018-08-18T15:39:31.951Z,43.28
2018-08-18T15:42:01.552Z,43.44
2018-08-18T15:44:30.429Z,43.61
2018-08-18T15:46:59.543Z,43.51
2018-08-18T15:49:28.511Z,43.34
2018-08-18T15:51:57.415Z,43.57
2018-08-18T15:54:26.426Z,43.35
2018-08-18T15:56:55.217Z,43.97
2018-08-18T15:59:24.127Z,43.56
2018-08-18T16:01:53.160Z,44.04
2018-08-18T16:04:22.031Z,43.49
2018-08-18T16:06:50.937Z,42.91
2018-08-18T16:09:19.861Z,42.87
2018-08-18T16:11:48.782Z,43.08
2018-08-18T16:14:17.663Z,43.38
2018-08-18T16:16:57.076Z,43.29
2018-08-18T16:19:25.994Z,41.41
2018-08-18T16:21:54.870Z,43.28
2018-08-18T16:24:40.473Z,44.82
2018-08-18T16:27:09.395Z,46.11
2018-08-18T16:29:38.642Z,46.85
2018-08-18T16:32:27.469Z,47.38
2018-08-18T16:35:01.893Z,48.22
2018-08-18T16:37:31.117Z,49.45
2018-08-18T16:39:59.988Z,49.86
2018-08-18T16:42:29.231Z,49.49
2018-08-18T16:44:58.229Z,50.08
2018-08-18T16:47:27.352Z,50.33
2018-08-18T16:49:56.335Z,51.14
2018-08-18T16:52:25.215Z,52.22
2018-08-18T16:54:54.180Z,53.09
2018-08-18T16:57:24.020Z,53.64
2018-08-18T16:59:52.916Z,53.83
2018-08-18T17:02:35.215Z,54.53
2018-08-18T17:05:04.887Z,54.98
2018-08-18T17:07:33.782Z,55.06
2018-08-18T17:10:02.677Z,55.38
2018-08-18T17:12:31.900Z,54.85
2018-08-18T17:15:00.800Z,55.26
2018-08-18T17:17:29.712Z,55.29
2018-08-18T17:19:58.617Z,55.16
2018-08-18T17:22:27.512Z,55.57
2018-08-18T17:24:56.478Z,55.89
2018-08-18T17:27:28.068Z,56.44
2018-08-18T17:29:56.946Z,56.79
2018-08-18T17:32:26.663Z,57.16
2018-08-18T17:34:55.541Z,56.91
2018-08-18T17:37:24.461Z,56.80
2018-08-18T17:39:53.395Z,57.41
2018-08-18T17:42:22.778Z,57.57
2018-08-18T17:44:51.685Z,57.83
2018-08-18T17:47:21.601Z,57.56
2018-08-18T17:49:54.657Z,58.59
2018-08-18T17:52:23.802Z,58.30
2018-08-18T17:55:05.648Z,58.37
2018-08-18T17:57:36.176Z,58.48
2018-08-18T18:00:16.166Z,59.01
2018-08-18T18:02:51.086Z,59.14
2018-08-18T18:05:22.410Z,58.94
2018-08-18T18:07:53.479Z,58.85
2018-08-18T18:12:51.298Z,58.60
2018-08-18T18:15:41.100Z,59.12
2018-08-18T18:18:11.576Z,58.62
2018-08-18T18:20:42.663Z,59.20
2018-08-18T18:23:14.137Z,59.03
2018-08-18T18:25:44.165Z,59.18
2018-08-18T18:28:20.734Z,59.50
2018-08-18T18:30:52.272Z,59.56
2018-08-18T18:33:21.280Z,59.04
2018-08-18T18:35:50.847Z,59.17
2018-08-18T18:38:19.809Z,59.39
2018-08-18T18:40:48.679Z,59.54
2018-08-18T18:43:17.710Z,59.47
2018-08-18T18:45:46.768Z,60.04
2018-08-18T18:48:17.223Z,60.56
2018-08-18T18:50:47.881Z,61.04
2018-08-18T18:53:17.865Z,60.83
2018-08-18T18:55:51.822Z,61.14
2018-08-18T18:58:20.816Z,60.99
2018-08-18T19:01:01.349Z,61.81
2018-08-18T19:03:30.390Z,61.82
2018-08-18T19:05:59.307Z,62.09
2018-08-18T19:08:28.240Z,62.13
2018-08-18T19:10:57.229Z,62.04
2018-08-18T19:13:27.053Z,62.13
2018-08-18T19:15:55.963Z,62.43
2018-08-18T19:18:24.845Z,62.16
2018-08-18T19:20:53.740Z,61.89
2018-08-18T19:23:22.744Z,62.54
2018-08-18T19:25:52.082Z,62.80
2018-08-18T19:28:22.371Z,62.23
2018-08-18T19:30:51.297Z,62.85
2018-08-18T19:33:20.372Z,62.86
2018-08-18T19:35:51.750Z,62.44
2018-08-18T19:38:21.581Z,62.41
2018-08-18T19:40:52.064Z,62.50
2018-08-18T19:43:22.119Z,62.58
2018-08-18T19:45:51.341Z,64.34
2018-08-18T19:48:21.920Z,65.47
2018-08-18T19:50:56.855Z,65.75
2018-08-18T19:53:29.104Z,64.66
2018-08-18T19:55:59.245Z,63.88
2018-08-18T19:58:28.887Z,64.53
2018-08-18T20:00:57.887Z,65.67
2018-08-18T20:03:26.986Z,66.07
2018-08-18T20:05:55.979Z,66.73
2018-08-18T20:08:26.306Z,64.57
2018-08-18T20:11:01.499Z,66.32
2018-08-18T20:13:31.716Z,67.39
2018-08-18T20:16:03.058Z,67.20
2018-08-18T20:18:32.628Z,68.50
2018-08-18T20:21:01.446Z,68.46
2018-08-18T20:23:30.457Z,68.83
2018-08-18T20:26:01.737Z,70.21
2018-08-18T20:28:30.622Z,70.62
2018-08-18T20:30:59.537Z,70.94
2018-08-18T20:33:28.479Z,70.61
2018-08-18T20:35:57.371Z,71.13
2018-08-18T20:38:31.500Z,71.86
2018-08-18T20:41:00.500Z,71.19
2018-08-18T20:43:29.658Z,71.86
2018-08-18T20:45:58.580Z,71.55
2018-08-18T20:48:28.496Z,72.01
2018-08-18T20:50:57.486Z,71.87
2018-08-18T20:53:27.725Z,73.00
2018-08-18T20:56:00.019Z,73.46
2018-08-18T20:58:29.602Z,74.32
2018-08-18T21:00:58.505Z,73.96
2018-08-18T21:03:44.945Z,74.04
2018-08-18T21:06:14.708Z,73.87
2018-08-18T21:08:43.577Z,74.35
2018-08-18T21:11:12.445Z,74.78
2018-08-18T21:13:41.404Z,74.70
2018-08-18T21:16:11.408Z,74.64
2018-08-18T21:18:40.352Z,74.50
2018-08-18T21:21:39.912Z,74.36
2018-08-18T21:24:08.852Z,74.96
2018-08-18T21:26:37.881Z,75.67
2018-08-18T21:29:06.879Z,76.68
2018-08-18T21:31:37.056Z,76.39
2018-08-18T21:34:07.212Z,77.11
2018-08-18T21:36:36.579Z,76.67
2018-08-18T21:39:07.725Z,76.25
2018-08-18T21:41:37.127Z,76.86
2018-08-18T21:44:07.280Z,76.65
2018-08-18T21:46:36.126Z,76.75
2018-08-18T21:49:05.056Z,77.12
2018-08-18T21:51:33.988Z,77.39
2018-08-18T21:54:02.931Z,78.07
2018-08-18T21:56:42.861Z,78.29
2018-08-18T21:59:13.839Z,78.48
2018-08-18T22:01:42.849Z,77.82
2018-08-18T22:04:11.782Z,78.55
2018-08-18T22:06:40.717Z,79.07
2018-08-18T22:09:23.960Z,79.21
2018-08-18T22:11:52.958Z,78.88
2018-08-18T22:14:21.874Z,78.35
2018-08-18T22:16:56.215Z,79.01
2018-08-18T22:19:27.063Z,78.80
2018-08-18T22:21:55.985Z,80.01
2018-08-18T22:24:24.982Z,80.49
2018-08-18T22:26:54.477Z,80.63
2018-08-18T22:29:24.258Z,80.20
2018-08-18T22:31:53.187Z,80.33
2018-08-18T22:34:22.108Z,80.80
2018-08-18T22:36:54.673Z,80.72
2018-08-18T22:39:23.635Z,81.08
2018-08-18T22:41:52.529Z,81.35
2018-08-18T22:44:21.472Z,81.35
2018-08-18T22:46:50.360Z,81.34
2018-08-18T22:49:19.247Z,81.26
2018-08-18T22:51:48.248Z,81.10
2018-08-18T22:54:17.132Z,82.20
2018-08-18T22:56:50.179Z,81.60
2018-08-18T22:59:19.069Z,82.03
2018-08-18T23:01:48.075Z,81.31
2018-08-18T23:04:28.455Z,82.20
2018-08-18T23:06:57.950Z,81.74
2018-08-18T23:09:27.659Z,81.75
2018-08-18T23:12:00.413Z,81.94
2018-08-18T23:14:32.703Z,81.68
2018-08-18T23:17:01.932Z,82.25
2018-08-18T23:19:32.065Z,83.45
2018-08-18T23:22:01.430Z,82.33
2018-08-18T23:24:33.051Z,82.77
2018-08-18T23:27:02.566Z,82.09
2018-08-18T23:29:31.484Z,82.13
2018-08-18T23:32:04.111Z,82.94
2018-08-18T23:34:33.080Z,82.40
2018-08-18T23:37:01.946Z,83.61
2018-08-18T23:39:30.926Z,82.83
2018-08-18T23:42:11.097Z,83.04
2018-08-18T23:44:40.050Z,83.20
2018-08-18T23:47:08.935Z,83.87
2018-08-18T23:49:37.794Z,83.62
2018-08-18T23:52:06.995Z,83.93
2018-08-18T23:54:35.947Z,83.26
2018-08-18T23:57:04.925Z,84.15
2018-08-18T23:59:33.833Z,84.27
